Time;durP1;ratioP1;P1;durP2;ratioP2;P2;SDS_P1;SDS_P2;PMS_P1;PMS_P2;Temp;Humidity;BMP_temperature;BMP_pressure;BME280_temperature;BME280_humidity;BME280_pressure;Samples;Min_cycle;Max_cycle;Signal;HPM_P1;HPM_P2
2022/06/24 00:00:16;;;;;;;923.13;827.80;;;20.90;99.90;;;;;;5051974;28;20390;-77
2022/06/24 00:02:48;;;;;;;1055.50;899.00;;;20.80;99.90;;;;;;5052495;28;20398;-77
2022/06/24 00:05:13;;;;;;;1999.90;918.25;;;20.70;99.90;;;;;;5052618;28;20110;-77
2022/06/24 00:07:50;;;;;;;1999.90;899.25;;;20.60;99.90;;;;;;5052793;28;20135;-77
2022/06/24 00:10:23;;;;;;;1999.90;999.90;;;20.60;99.90;;;;;;5051715;28;20064;-78
2022/06/24 00:12:51;;;;;;;1999.90;999.90;;;20.50;99.90;;;;;;5052684;28;20045;-80
2022/06/24 00:15:27;;;;;;;;;;;20.50;99.90;;;;;;5052128;28;20516;-77
2022/06/24 00:17:53;;;;;;;1622.65;999.90;;;20.40;99.90;;;;;;5051957;28;20313;-77
2022/06/24 00:20:20;;;;;;;1999.90;999.90;;;20.40;99.90;;;;;;5052453;28;20110;-77
2022/06/24 00:22:48;;;;;;;1999.90;999.90;;;20.30;99.90;;;;;;5052300;28;20052;-77
2022/06/24 00:25:22;;;;;;;1999.90;999.90;;;20.20;99.90;;;;;;5052893;28;20045;-76
2022/06/24 00:28:09;;;;;;;1815.50;502.23;;;20.20;99.90;;;;;;5052322;28;20098;-77
2022/06/24 00:30:43;;;;;;;1999.90;999.90;;;20.20;99.90;;;;;;5052348;28;20480;-77
2022/06/24 00:33:16;;;;;;;1999.90;999.90;;;20.10;99.90;;;;;;5052146;28;20049;-78
2022/06/24 00:35:47;;;;;;;1999.90;999.90;;;20.00;99.90;;;;;;5052726;28;20055;-77
2022/06/24 00:38:28;;;;;;;1999.90;999.90;;;20.00;99.90;;;;;;5052028;28;20175;-76
2022/06/24 00:41:04;;;;;;;1999.90;985.45;;;19.90;99.90;;;;;;5051486;28;20075;-77
2022/06/24 00:43:31;;;;;;;1999.90;999.90;;;19.90;99.90;;;;;;5050902;28;20057;-76
2022/06/24 00:46:09;;;;;;;;;;;19.90;99.90;;;;;;5051504;28;20128;-77
2022/06/24 00:48:38;;;;;;;1281.00;987.30;;;19.80;99.90;;;;;;5050085;28;20019;-77
2022/06/24 00:51:07;;;;;;;1831.25;999.90;;;19.70;99.90;;;;;;5051170;28;20057;-77
2022/06/24 00:53:47;;;;;;;1999.90;999.90;;;19.70;99.90;;;;;;5051281;28;20493;-76
2022/06/24 00:56:15;;;;;;;1999.90;999.90;;;19.60;99.90;;;;;;5051630;28;20053;-78
2022/06/24 00:59:00;;;;;;;1999.90;999.90;;;19.60;99.90;;;;;;5051378;28;20185;-77
2022/06/24 01:01:32;;;;;;;1999.90;999.90;;;19.50;99.90;;;;;;5050736;28;20055;-77
2022/06/24 01:03:59;;;;;;;1999.90;999.90;;;19.40;99.90;;;;;;5050043;28;20353;-76
2022/06/24 01:06:27;;;;;;;1999.90;999.90;;;19.40;99.90;;;;;;5050718;28;20461;-76
2022/06/24 01:08:53;;;;;;;1999.90;999.90;;;19.40;99.90;;;;;;5050115;28;20044;-77
2022/06/24 01:11:36;;;;;;;1999.90;999.90;;;19.30;99.90;;;;;;5050645;28;20056;-77
2022/06/24 01:14:02;;;;;;;1999.90;725.42;;;19.20;99.90;;;;;;5051102;28;20052;-77
2022/06/24 01:16:28;;;;;;;1999.90;999.90;;;19.20;99.90;;;;;;5050569;28;20509;-76
2022/06/24 01:18:57;;;;;;;1969.93;982.28;;;19.20;99.90;;;;;;5051262;28;20048;-77
2022/06/24 01:21:40;;;;;;;1999.90;999.90;;;19.20;99.90;;;;;;5066245;28;20041;-76
2022/06/24 01:24:10;;;;;;;1999.90;999.90;;;19.10;99.90;;;;;;5051379;28;20055;-77
2022/06/24 01:26:41;;;;;;;1999.90;938.30;;;19.10;99.90;;;;;;5051388;28;20057;-77
2022/06/24 01:29:07;;;;;;;1999.90;997.15;;;19.10;99.90;;;;;;5050182;28;20045;-77
2022/06/24 01:31:33;;;;;;;1999.90;998.50;;;19.10;99.90;;;;;;5051311;28;20044;-76
2022/06/24 01:33:59;;;;;;;1999.90;999.90;;;19.10;99.90;;;;;;5051212;28;20051;-76
2022/06/24 01:36:25;;;;;;;1999.90;658.03;;;19.00;99.90;;;;;;5066127;28;20040;-76
2022/06/24 01:38:51;;;;;;;1999.90;999.90;;;19.00;99.90;;;;;;5049792;28;20102;-76
2022/06/24 01:41:17;;;;;;;1999.90;856.83;;;18.90;99.90;;;;;;5051131;28;20051;-76
2022/06/24 01:43:43;;;;;;;1840.05;983.90;;;18.90;99.90;;;;;;5050860;28;20049;-76
2022/06/24 01:46:11;;;;;;;1029.07;935.67;;;18.80;99.90;;;;;;5049079;28;20045;-78
2022/06/24 01:48:37;;;;;;;1999.90;999.90;;;18.80;99.90;;;;;;5050700;28;20056;-76
2022/06/24 01:51:04;;;;;;;1786.18;999.90;;;18.70;99.90;;;;;;5066020;28;20044;-75
2022/06/24 01:53:30;;;;;;;1999.90;997.88;;;18.70;99.90;;;;;;5049718;28;20040;-75
2022/06/24 01:55:56;;;;;;;1799.32;823.97;;;18.60;99.90;;;;;;5049925;28;20048;-76
2022/06/24 01:58:21;;;;;;;1100.00;978.97;;;18.60;99.90;;;;;;5050823;28;20094;-76
2022/06/24 02:00:47;;;;;;;1764.25;928.28;;;18.60;99.90;;;;;;5049362;28;20036;-77
2022/06/24 02:03:13;;;;;;;1766.72;902.45;;;18.60;99.90;;;;;;5050600;28;20083;-76
2022/06/24 02:05:40;;;;;;;1999.90;999.90;;;18.50;99.90;;;;;;5066397;28;20063;-76
2022/06/24 02:08:06;;;;;;;1808.18;548.53;;;18.50;99.90;;;;;;5050466;28;20045;-75
2022/06/24 02:13:29;;;;;;;1999.90;999.90;;;18.50;99.90;;;;;;5050014;28;20531;-75
2022/06/24 02:15:56;;;;;;;1039.68;926.13;;;18.40;99.90;;;;;;5050551;28;20036;-75
2022/06/24 02:18:22;;;;;;;;;;;18.40;99.90;;;;;;5083162;28;20049;-75
2022/06/24 02:20:49;;;;;;;1547.25;975.47;;;18.40;99.90;;;;;;5053764;28;19924;-76
2022/06/24 02:23:16;;;;;;;1244.60;967.63;;;18.40;99.90;;;;;;5069235;28;20041;-75
2022/06/24 02:25:42;;;;;;;1995.15;776.67;;;18.40;99.90;;;;;;5054035;28;20287;-75
2022/06/24 02:28:07;;;;;;;1021.40;919.80;;;18.40;99.90;;;;;;5054116;28;20124;-76
2022/06/24 02:30:34;;;;;;;1987.72;579.83;;;18.40;99.90;;;;;;5052926;28;20074;-75
2022/06/24 02:32:59;;;;;;;1999.90;999.90;;;18.40;99.90;;;;;;5069904;28;20040;-75
2022/06/24 02:35:25;;;;;;;1999.90;968.67;;;18.50;99.90;;;;;;5054520;28;20047;-75
2022/06/24 02:37:51;;;;;;;1863.68;999.90;;;18.50;99.90;;;;;;5054775;28;20388;-75
2022/06/24 02:43:01;;;;;;;1337.18;832.15;;;18.50;99.90;;;;;;5053990;28;20052;-75
2022/06/24 02:45:26;;;;;;;1999.90;761.17;;;18.50;99.90;;;;;;5053895;28;20041;-75
2022/06/24 02:47:52;;;;;;;1956.40;999.90;;;18.50;99.90;;;;;;5054305;28;20044;-75
2022/06/24 02:50:18;;;;;;;1999.90;999.90;;;18.50;99.90;;;;;;5053714;28;20041;-75
2022/06/24 02:52:43;;;;;;;1498.05;998.05;;;18.60;99.90;;;;;;5054437;28;20376;-76
2022/06/24 02:55:09;;;;;;;1999.90;999.90;;;18.60;99.90;;;;;;5053470;28;20083;-78
2022/06/24 02:57:35;;;;;;;1863.05;846.05;;;18.60;99.90;;;;;;5069838;28;20136;-75
2022/06/24 03:00:01;;;;;;;1893.97;844.00;;;18.60;99.90;;;;;;5052934;28;20049;-80
2022/06/24 03:02:26;;;;;;;1999.90;779.95;;;18.60;99.90;;;;;;5052195;28;20055;-76
2022/06/24 03:04:52;;;;;;;1999.90;748.90;;;18.60;99.90;;;;;;5052790;28;20506;-75
2022/06/24 03:07:18;;;;;;;1033.25;910.90;;;18.60;99.90;;;;;;5052819;28;20099;-76
2022/06/24 03:09:43;;;;;;;989.80;887.78;;;18.60;99.90;;;;;;5053716;28;20084;-75
2022/06/24 03:12:09;;;;;;;1999.90;999.90;;;18.60;99.90;;;;;;5053650;28;20485;-75
2022/06/24 03:14:35;;;;;;;1999.90;999.90;;;18.70;99.90;;;;;;5054170;28;20084;-75
2022/06/24 03:17:01;;;;;;;1999.90;999.90;;;18.80;99.90;;;;;;5053166;28;20053;-76
2022/06/24 03:19:26;;;;;;;656.05;608.47;;;18.80;99.90;;;;;;5053783;28;20132;-76
2022/06/24 03:21:52;;;;;;;943.60;734.72;;;18.80;99.90;;;;;;5068834;28;20057;-76
2022/06/24 03:24:18;;;;;;;819.83;751.80;;;18.90;99.90;;;;;;5068783;28;20080;-76
2022/06/24 03:26:43;;;;;;;754.40;673.22;;;19.00;99.90;;;;;;5053130;28;20049;-77
2022/06/24 03:29:09;;;;;;;718.90;650.78;;;19.00;99.90;;;;;;5053636;28;20041;-77
2022/06/24 03:31:35;;;;;;;1432.90;999.90;;;19.10;99.90;;;;;;5068241;28;20048;-76
2022/06/24 03:34:00;;;;;;;896.95;808.63;;;19.10;99.90;;;;;;5036119;28;20053;-76
2022/06/24 03:36:26;;;;;;;596.10;555.15;;;19.20;99.90;;;;;;5052371;28;20049;-76
2022/06/24 03:38:52;;;;;;;595.70;555.35;;;19.10;99.90;;;;;;5052338;28;20057;-76
2022/06/24 03:41:18;;;;;;;1787.10;975.53;;;19.20;99.90;;;;;;5053080;28;20045;-76
2022/06/24 03:43:43;;;;;;;931.35;847.15;;;19.20;99.90;;;;;;5053543;28;20037;-76
2022/06/24 03:46:09;;;;;;;709.70;659.97;;;19.30;99.90;;;;;;5052541;28;20052;-76
2022/06/24 03:48:35;;;;;;;844.50;776.30;;;19.30;99.90;;;;;;5052277;28;20052;-76
2022/06/24 03:51:01;;;;;;;1585.75;999.90;;;19.40;99.90;;;;;;5052824;28;20063;-76
2022/06/24 03:53:26;;;;;;;877.05;801.05;;;19.50;99.90;;;;;;5052005;28;20124;-75
2022/06/24 03:55:52;;;;;;;1999.90;897.60;;;19.50;99.90;;;;;;5069118;28;20186;-76
2022/06/24 03:58:19;;;;;;;1213.95;777.05;;;19.60;99.90;;;;;;5067938;28;20132;-76
2022/06/24 04:00:45;;;;;;;1999.90;606.03;;;19.50;99.90;;;;;;5052074;28;20045;-77
2022/06/24 04:03:11;;;;;;;1999.90;966.08;;;19.50;99.90;;;;;;5052395;28;20045;-76
2022/06/24 04:05:37;;;;;;;1999.90;920.35;;;19.50;99.90;;;;;;5050197;28;20151;-76
2022/06/24 04:08:03;;;;;;;736.75;683.38;;;19.50;99.90;;;;;;5052088;28;20044;-75
2022/06/24 04:10:29;;;;;;;531.60;496.20;;;19.40;99.90;;;;;;5051468;28;20642;-76
2022/06/24 04:12:55;;;;;;;1999.90;978.92;;;19.40;99.90;;;;;;5051363;28;20061;-76
2022/06/24 04:15:20;;;;;;;732.83;675.53;;;19.30;99.90;;;;;;5050712;28;20049;-77
2022/06/24 04:17:48;;;;;;;825.08;765.78;;;19.30;99.90;;;;;;5066418;28;20045;-77
2022/06/24 04:20:15;;;;;;;;;;;19.30;99.90;;;;;;5051551;28;20370;-76
2022/06/24 04:22:41;;;;;;;1766.82;936.22;;;19.30;99.90;;;;;;5084859;28;20363;-77
2022/06/24 04:25:08;;;;;;;1999.90;861.38;;;19.30;99.90;;;;;;5052710;28;20107;-77
2022/06/24 04:27:34;;;;;;;1999.90;859.75;;;19.30;99.90;;;;;;5050874;28;20044;-77
2022/06/24 04:30:01;;;;;;;539.25;501.42;;;19.40;99.90;;;;;;5051088;28;20044;-77
2022/06/24 04:32:27;;;;;;;1610.82;591.95;;;19.40;99.90;;;;;;5052494;28;20048;-77
2022/06/24 04:34:52;;;;;;;1999.90;999.90;;;19.50;99.90;;;;;;5051244;28;20049;-77
2022/06/24 04:37:18;;;;;;;1622.05;973.03;;;19.50;99.90;;;;;;5049927;28;20128;-77
2022/06/24 04:39:44;;;;;;;1999.90;900.40;;;19.60;99.90;;;;;;5066542;28;20436;-81
2022/06/24 04:42:10;;;;;;;877.88;803.42;;;19.70;99.90;;;;;;5048981;28;20089;-80
2022/06/24 04:44:37;;;;;;;719.47;669.10;;;19.80;99.90;;;;;;5066904;28;20456;-75
2022/06/24 04:47:03;;;;;;;757.60;701.05;;;19.90;99.90;;;;;;5051632;28;20084;-75
2022/06/24 04:49:28;;;;;;;810.53;746.83;;;20.00;99.90;;;;;;5051763;28;20080;-75
2022/06/24 04:51:54;;;;;;;795.88;737.63;;;20.20;99.90;;;;;;5034228;28;20048;-77
2022/06/24 04:54:21;;;;;;;802.40;726.90;;;20.30;99.90;;;;;;5049571;28;20061;-75
2022/06/24 04:56:46;;;;;;;848.97;769.20;;;20.40;99.90;;;;;;5051845;28;20137;-76
2022/06/24 04:59:12;;;;;;;1373.70;977.88;;;20.50;99.90;;;;;;5050943;28;20123;-81
2022/06/24 05:01:38;;;;;;;1203.65;971.95;;;20.60;99.90;;;;;;5050982;28;20127;-75
2022/06/24 05:04:04;;;;;;;1999.90;999.90;;;20.70;99.90;;;;;;5051010;28;20398;-76
2022/06/24 05:06:29;;;;;;;1999.90;999.90;;;20.80;99.90;;;;;;5050729;28;20064;-76
2022/06/24 05:08:56;;;;;;;1999.90;892.08;;;20.90;99.90;;;;;;5050013;28;20140;-77
2022/06/24 05:11:21;;;;;;;1891.45;442.17;;;20.90;99.90;;;;;;5051118;28;20061;-80
2022/06/24 05:13:47;;;;;;;1999.90;895.05;;;20.90;99.90;;;;;;5050182;28;20432;-75
2022/06/24 05:16:13;;;;;;;1999.90;772.00;;;21.00;99.90;;;;;;5066391;28;20048;-75
2022/06/24 05:18:39;;;;;;;1999.90;925.00;;;20.90;99.90;;;;;;5050121;28;20076;-76
2022/06/24 05:21:04;;;;;;;1999.90;999.90;;;21.00;99.90;;;;;;5066706;28;20465;-75
2022/06/24 05:23:30;;;;;;;1999.90;974.42;;;21.10;99.90;;;;;;5049935;28;20088;-75
2022/06/24 05:25:56;;;;;;;1999.90;847.00;;;21.30;99.90;;;;;;5049598;28;20056;-76
2022/06/24 05:28:22;;;;;;;1999.90;615.40;;;21.40;99.90;;;;;;5066804;28;20053;-75
2022/06/24 05:30:56;;;;;;;1999.90;923.88;;;21.50;99.90;;;;;;5050663;28;20049;-77
2022/06/24 05:33:23;;;;;;;1999.90;980.20;;;21.50;99.90;;;;;;5050239;28;20401;-80
2022/06/24 05:35:55;;;;;;;1999.90;453.80;;;21.60;99.90;;;;;;5048892;28;20045;-76
2022/06/24 05:38:22;;;;;;;1999.90;638.97;;;21.60;99.90;;;;;;5050995;28;20052;-75
2022/06/24 05:40:51;;;;;;;1999.90;630.47;;;21.60;99.90;;;;;;5051252;28;20045;-76
2022/06/24 05:43:18;;;;;;;1999.90;636.63;;;21.60;99.90;;;;;;5051151;28;20363;-75
2022/06/24 05:45:45;;;;;;;1999.90;626.00;;;21.50;99.90;;;;;;5050738;28;20045;-75
2022/06/24 05:48:10;;;;;;;1999.90;577.47;;;21.50;99.90;;;;;;5050375;28;20041;-75
2022/06/24 05:50:39;;;;;;;1999.90;508.52;;;21.40;99.90;;;;;;5051256;28;20052;-75
2022/06/24 05:55:55;;;;;;;1999.90;475.10;;;21.10;99.90;;;;;;5051264;28;20140;-76
2022/06/24 05:58:21;;;;;;;1999.90;999.90;;;21.00;99.90;;;;;;5050744;28;20378;-77
2022/06/24 06:00:46;;;;;;;1999.90;999.90;;;20.80;1.00;;;;;;5050266;28;20048;-85
2022/06/24 06:03:12;;;;;;;1999.90;999.90;;;19.40;38.90;;;;;;5050380;28;20551;-86
2022/06/24 06:05:38;;;;;;;1999.90;999.90;;;20.70;99.90;;;;;;5051022;28;20405;-89
2022/06/24 06:08:04;;;;;;;1999.90;999.90;;;18.90;99.90;;;;;;5050437;28;20552;-87
2022/06/24 06:10:30;;;;;;;1999.90;999.90;;;20.70;99.90;;;;;;5050910;28;20454;-88
2022/06/24 06:12:55;;;;;;;1999.90;999.90;;;20.60;99.90;;;;;;5051063;28;20067;-86
2022/06/24 06:15:21;;;;;;;1999.90;999.90;;;19.00;99.90;;;;;;5050213;28;20053;-86
2022/06/24 06:17:47;;;;;;;1999.90;999.90;;;20.80;99.90;;;;;;5050115;28;20128;-86
2022/06/24 06:20:12;;;;;;;1999.90;999.90;;;19.30;99.90;;;;;;5066433;28;20049;-87
2022/06/24 06:22:38;;;;;;;1999.90;999.90;;;20.70;99.90;;;;;;5049682;28;20265;-88
2022/06/24 06:25:04;;;;;;;1999.90;999.90;;;19.20;99.90;;;;;;5050742;28;20498;-88
2022/06/24 06:27:30;;;;;;;1999.90;999.90;;;19.30;99.90;;;;;;5050840;28;20128;-88
2022/06/24 06:29:55;;;;;;;1999.90;999.90;;;21.00;99.90;;;;;;5050731;28;20179;-89
2022/06/24 06:32:21;;;;;;;1999.90;999.90;;;19.70;99.90;;;;;;5050793;28;20110;-88
2022/06/24 06:34:47;;;;;;;1999.90;999.90;;;19.50;99.90;;;;;;5050605;28;20052;-87
2022/06/24 06:37:12;;;;;;;1999.90;999.90;;;19.80;99.90;;;;;;5050696;28;20049;-87
2022/06/24 06:39:38;;;;;;;1999.90;999.90;;;20.10;99.90;;;;;;5049570;28;20044;-87
2022/06/24 06:42:04;;;;;;;1999.90;999.90;;;21.20;99.90;;;;;;5050778;28;20083;-87
2022/06/24 06:44:30;;;;;;;1999.90;999.90;;;21.70;99.90;;;;;;5049763;28;20111;-88
2022/06/24 06:46:56;;;;;;;1999.90;999.90;;;20.30;99.90;;;;;;5050336;28;20057;-87
2022/06/24 06:49:21;;;;;;;1999.90;999.90;;;20.10;99.90;;;;;;5049791;28;20050;-85
2022/06/24 06:51:47;;;;;;;1999.90;999.90;;;22.00;99.90;;;;;;5050791;28;20049;-87
2022/06/24 06:54:13;;;;;;;1999.90;999.90;;;21.10;99.90;;;;;;5050706;28;20106;-86
2022/06/24 06:56:39;;;;;;;1999.90;999.90;;;21.40;99.90;;;;;;5050535;28;20041;-86
2022/06/24 06:59:05;;;;;;;1999.90;999.90;;;21.80;99.90;;;;;;5050968;28;20135;-86
2022/06/24 07:01:30;;;;;;;1999.90;999.90;;;21.70;99.90;;;;;;5050308;28;20140;-86
2022/06/24 07:03:57;;;;;;;1999.90;999.90;;;20.20;99.90;;;;;;5050625;28;20032;-87
2022/06/24 07:06:24;;;;;;;1999.90;999.90;;;21.60;99.90;;;;;;5053083;28;20106;-87
2022/06/24 07:08:49;;;;;;;1999.90;999.90;;;20.10;99.90;;;;;;5054326;28;20099;-87
2022/06/24 07:11:15;;;;;;;1999.90;999.90;;;20.10;99.90;;;;;;5054595;28;20108;-88
2022/06/24 07:13:41;;;;;;;1999.90;999.90;;;20.20;99.90;;;;;;5052560;28;20401;-88
2022/06/24 07:16:10;;;;;;;1999.90;999.90;;;20.40;99.90;;;;;;5052934;28;20094;-88
2022/06/24 07:18:36;;;;;;;1999.90;999.90;;;21.00;99.90;;;;;;5054356;28;20291;-88
2022/06/24 07:21:02;;;;;;;1999.90;999.90;;;20.40;99.90;;;;;;5054564;28;20067;-87
2022/06/24 07:23:28;;;;;;;1999.90;999.90;;;20.30;99.90;;;;;;5052895;28;20068;-87
2022/06/24 07:25:58;;;;;;;1999.90;999.90;;;21.20;99.90;;;;;;5052631;28;20096;-86
2022/06/24 07:28:27;;;;;;;1999.90;999.90;;;20.60;99.90;;;;;;5054653;28;20049;-86
2022/06/24 07:30:53;;;;;;;1999.90;999.90;;;20.80;99.90;;;;;;5053966;28;20515;-84
2022/06/24 07:33:19;;;;;;;1999.90;999.90;;;21.10;99.90;;;;;;5071162;28;20140;-84
2022/06/24 07:35:45;;;;;;;1999.90;999.90;;;19.90;99.90;;;;;;5058580;28;20041;-82
2022/06/24 07:38:11;;;;;;;1999.90;999.90;;;20.90;99.90;;;;;;5072746;28;20155;-82
2022/06/24 07:40:36;;;;;;;1999.90;999.90;;;19.90;99.90;;;;;;5055657;28;20102;-81
2022/06/24 07:43:02;;;;;;;1999.90;999.90;;;20.90;99.90;;;;;;5055115;28;20045;-81
2022/06/24 07:45:28;;;;;;;1999.90;999.90;;;20.90;99.90;;;;;;5053003;28;20072;-81
2022/06/24 07:47:53;;;;;;;1999.90;999.90;;;20.30;99.90;;;;;;5053658;28;20086;-80
2022/06/24 07:50:19;;;;;;;1999.90;999.90;;;20.80;99.90;;;;;;5053728;28;20053;-80
2022/06/24 07:52:45;;;;;;;1999.90;999.90;;;20.60;99.90;;;;;;5053317;28;20044;-79
2022/06/24 07:57:55;;;;;;;1999.90;999.90;;;20.10;99.90;;;;;;5069075;28;20052;-79
2022/06/24 08:00:21;;;;;;;1999.90;999.90;;;20.70;99.90;;;;;;5053034;28;20049;-80
2022/06/24 08:02:46;;;;;;;1999.90;999.90;;;20.20;99.90;;;;;;5053052;28;20041;-80
2022/06/24 08:05:12;;;;;;;1999.90;999.90;;;20.60;99.90;;;;;;5053083;28;20044;-79
2022/06/24 08:07:38;;;;;;;1999.90;999.90;;;20.60;99.90;;;;;;5068474;28;20052;-79
2022/06/24 08:10:04;;;;;;;1999.90;999.90;;;21.20;99.90;;;;;;5051692;28;20056;-79
2022/06/24 08:12:30;;;;;;;1999.90;999.90;;;21.10;99.90;;;;;;5053219;28;20047;-79
2022/06/24 08:14:55;;;;;;;1999.90;999.90;;;20.30;99.90;;;;;;5052666;28;20041;-80
2022/06/24 08:17:21;;;;;;;1999.90;999.90;;;20.30;99.90;;;;;;5052868;28;20049;-80
2022/06/24 08:19:47;;;;;;;1999.90;999.90;;;20.20;99.90;;;;;;5052757;28;20214;-80
2022/06/24 08:22:13;;;;;;;1999.90;999.90;;;21.10;99.90;;;;;;5052928;28;20045;-79
2022/06/24 08:24:40;;;;;;;1999.90;999.90;;;20.50;99.90;;;;;;5068354;28;20043;-79
2022/06/24 08:27:06;;;;;;;1999.90;999.90;;;20.50;99.90;;;;;;5068152;28;20057;-79
2022/06/24 08:29:32;;;;;;;1999.90;999.90;;;21.10;99.90;;;;;;5052590;28;20045;-80
2022/06/24 08:31:57;;;;;;;1999.90;999.90;;;21.10;99.90;;;;;;5051027;28;20393;-80
2022/06/24 08:34:23;;;;;;;1999.90;999.90;;;20.90;99.90;;;;;;5052596;28;20128;-79
2022/06/24 08:36:49;;;;;;;1999.90;999.90;;;21.20;99.90;;;;;;5051939;28;20045;-80
2022/06/24 08:39:15;;;;;;;1999.90;999.90;;;20.70;99.90;;;;;;5051470;28;20052;-79
2022/06/24 08:41:45;;;;;;;1999.90;999.90;;;20.60;99.90;;;;;;5052193;28;20045;-79
2022/06/24 08:44:12;;;;;;;1999.90;999.90;;;20.30;99.90;;;;;;5052460;28;20088;-79
2022/06/24 08:46:42;;;;;;;1999.90;999.90;;;21.10;99.90;;;;;;5050134;28;20473;-79
2022/06/24 08:49:07;;;;;;;1999.90;999.90;;;20.50;99.90;;;;;;5052163;28;20060;-79
2022/06/24 08:51:36;;;;;;;1999.90;999.90;;;21.30;99.90;;;;;;5052259;28;20086;-79
2022/06/24 08:54:03;;;;;;;1999.90;999.90;;;20.50;99.90;;;;;;5052270;28;20049;-79
2022/06/24 08:56:29;;;;;;;1999.90;999.90;;;20.30;99.90;;;;;;5051840;28;20049;-79
2022/06/24 08:58:56;;;;;;;1999.90;999.90;;;20.20;99.90;;;;;;5066917;28;20076;-78
2022/06/24 09:01:21;;;;;;;1999.90;999.90;;;20.60;99.90;;;;;;5050818;28;20061;-78
2022/06/24 09:03:48;;;;;;;1999.90;999.90;;;20.30;99.90;;;;;;5050628;28;20143;-78
2022/06/24 09:06:15;;;;;;;1999.90;999.90;;;20.90;99.90;;;;;;5067580;28;20053;-79
2022/06/24 09:08:51;;;;;;;1999.90;999.90;;;20.10;99.90;;;;;;5051297;28;20524;-79
2022/06/24 09:11:18;;;;;;;1999.90;999.90;;;20.80;99.90;;;;;;5050627;28;20056;-79
2022/06/24 09:13:56;;;;;;;1999.90;999.90;;;20.20;99.90;;;;;;5051710;28;20122;-78
2022/06/24 09:16:25;;;;;;;1999.90;999.90;;;20.00;99.90;;;;;;5051590;28;20045;-79
2022/06/24 09:18:57;;;;;;;1999.90;999.90;;;20.50;99.90;;;;;;5051284;28;20044;-79
2022/06/24 09:21:27;;;;;;;1999.90;999.90;;;21.10;99.90;;;;;;5051868;28;20041;-80
2022/06/24 09:23:57;;;;;;;1999.90;999.90;;;20.40;99.90;;;;;;5051479;28;20045;-79
2022/06/24 09:26:30;;;;;;;1999.90;999.90;;;21.10;99.90;;;;;;5051548;28;20490;-79
2022/06/24 09:28:56;;;;;;;1999.90;999.90;;;20.40;99.90;;;;;;5049523;28;20095;-78
2022/06/24 09:31:25;;;;;;;1999.90;999.90;;;20.90;99.90;;;;;;5051414;28;20080;-78
2022/06/24 09:33:52;;;;;;;1999.90;999.90;;;20.30;99.90;;;;;;5051296;28;20501;-78
2022/06/24 09:36:25;;;;;;;1999.90;999.90;;;20.10;99.90;;;;;;5067087;28;20045;-78
2022/06/24 09:39:07;;;;;;;1999.90;999.90;;;20.20;99.90;;;;;;5051279;28;20127;-79
2022/06/24 09:41:47;;;;;;;1999.90;999.90;;;20.80;99.90;;;;;;5051572;28;20044;-78
2022/06/24 09:44:13;;;;;;;1999.90;999.90;;;20.20;99.90;;;;;;5051511;28;20190;-78
2022/06/24 09:46:40;;;;;;;1999.90;999.90;;;20.80;99.90;;;;;;5050103;28;20044;-79
2022/06/24 09:49:15;;;;;;;1999.90;999.90;;;20.80;99.90;;;;;;5051039;28;20501;-79
2022/06/24 09:51:44;;;;;;;1999.90;999.90;;;19.90;99.90;;;;;;5050363;28;20413;-83
2022/06/24 09:54:11;;;;;;;1999.90;999.90;;;20.40;99.90;;;;;;5051590;28;20048;-79
2022/06/24 09:56:38;;;;;;;1999.90;999.90;;;20.00;99.90;;;;;;5067096;28;20057;-79
2022/06/24 10:01:50;;;;;;;1999.90;999.90;;;20.60;99.90;;;;;;5050819;28;20075;-78
2022/06/24 10:04:20;;;;;;;1999.90;999.90;;;19.80;99.90;;;;;;5051512;28;20049;-78
2022/06/24 10:06:49;;;;;;;1999.90;999.90;;;20.40;99.90;;;;;;5051123;28;20164;-79
2022/06/24 10:09:24;;;;;;;1999.90;999.90;;;20.30;99.90;;;;;;5083350;28;20140;-78
2022/06/24 10:11:52;;;;;;;1999.90;999.90;;;20.10;99.90;;;;;;5051066;28;20049;-79
2022/06/24 10:14:19;;;;;;;1999.90;999.90;;;19.80;99.90;;;;;;5050187;28;20084;-79
2022/06/24 10:16:48;;;;;;;1999.90;999.90;;;19.60;99.90;;;;;;5050630;28;20099;-80
2022/06/24 10:19:16;;;;;;;1999.90;999.90;;;19.80;99.90;;;;;;5049814;28;20045;-79
2022/06/24 10:21:42;;;;;;;1999.90;999.90;;;19.30;99.90;;;;;;5049917;28;20099;-79
2022/06/24 10:24:16;;;;;;;1999.90;999.90;;;19.20;99.90;;;;;;5050209;28;20080;-79
2022/06/24 10:26:46;;;;;;;1999.90;999.90;;;19.20;99.90;;;;;;5051251;28;20057;-80
2022/06/24 10:29:20;;;;;;;1999.90;999.90;;;19.80;99.90;;;;;;5051159;28;20053;-79
2022/06/24 10:31:49;;;;;;;1999.90;999.90;;;19.30;99.90;;;;;;5050303;28;20414;-79
2022/06/24 10:34:30;;;;;;;1999.90;999.90;;;19.70;99.90;;;;;;5051018;28;20045;-79
2022/06/24 10:37:12;;;;;;;1999.90;999.90;;;19.00;99.90;;;;;;5050740;28;20049;-79
2022/06/24 10:39:56;;;;;;;1999.90;999.90;;;19.20;99.90;;;;;;5051247;28;20052;-79
2022/06/24 10:42:22;;;;;;;1999.90;999.90;;;19.20;99.90;;;;;;5054726;28;20052;-78
2022/06/24 10:44:59;;;;;;;1996.82;999.90;;;18.90;99.90;;;;;;5054004;28;20053;-79
2022/06/24 10:47:35;;;;;;;1991.65;999.90;;;18.80;99.90;;;;;;5055042;28;20053;-79
2022/06/24 10:50:02;;;;;;;1999.90;999.90;;;19.20;99.90;;;;;;5054523;28;20045;-79
2022/06/24 10:52:38;;;;;;;1999.90;999.90;;;18.60;99.90;;;;;;5053501;28;20370;-79
2022/06/24 10:55:28;;;;;;;1995.70;999.90;;;19.20;99.90;;;;;;5053868;28;20092;-79
2022/06/24 10:57:55;;;;;;;1999.90;999.90;;;18.90;99.90;;;;;;5054545;28;20048;-79
2022/06/24 11:00:22;;;;;;;1999.90;999.90;;;18.60;99.90;;;;;;5052931;28;20049;-78
2022/06/24 11:02:53;;;;;;;1999.90;999.90;;;18.70;99.90;;;;;;5053966;28;20048;-79
2022/06/24 11:05:24;;;;;;;1999.90;999.90;;;19.20;99.90;;;;;;5054097;28;20055;-78
2022/06/24 11:07:50;;;;;;;1999.90;999.90;;;18.70;99.90;;;;;;5085897;28;20051;-78
2022/06/24 11:10:19;;;;;;;1999.90;999.90;;;18.60;99.90;;;;;;5052825;28;20099;-79
2022/06/24 11:12:49;;;;;;;1999.90;999.90;;;18.80;99.90;;;;;;5053708;28;20063;-81
2022/06/24 11:15:15;;;;;;;1999.90;999.90;;;19.10;99.90;;;;;;5053717;28;20067;-80
2022/06/24 11:17:42;;;;;;;1999.90;999.90;;;19.30;99.90;;;;;;5053280;28;20048;-80
2022/06/24 11:20:13;;;;;;;1999.90;999.90;;;19.40;99.90;;;;;;5052286;28;20146;-79
2022/06/24 11:22:46;;;;;;;1999.90;999.90;;;19.00;99.90;;;;;;5069377;28;20115;-78
2022/06/24 11:25:14;;;;;;;1999.90;999.90;;;18.90;99.90;;;;;;5053899;28;20049;-78
2022/06/24 11:27:40;;;;;;;1999.90;999.90;;;19.30;99.90;;;;;;5069890;28;20099;-79
2022/06/24 11:30:07;;;;;;;1999.90;999.90;;;19.50;99.90;;;;;;5052219;28;20095;-79
2022/06/24 11:33:08;;;;;;;1999.90;999.90;;;19.50;99.90;;;;;;5049739;28;20049;-80
2022/06/24 11:35:34;;;;;;;1999.90;999.90;;;19.70;99.90;;;;;;5030808;28;20061;-81
2022/06/24 11:38:05;;;;;;;1999.90;999.90;;;19.80;99.90;;;;;;5047830;28;20049;-79
2022/06/24 11:40:32;;;;;;;1999.90;999.90;;;20.00;99.90;;;;;;5052454;28;20067;-80
2022/06/24 11:43:11;;;;;;;1999.90;999.90;;;20.10;99.90;;;;;;5052487;28;20045;-79
2022/06/24 11:45:40;;;;;;;1999.90;999.90;;;19.30;99.90;;;;;;5051595;28;20106;-80
2022/06/24 11:48:07;;;;;;;1999.90;999.90;;;19.40;99.90;;;;;;5053542;28;20124;-80
2022/06/24 11:50:33;;;;;;;1999.90;999.90;;;19.80;99.90;;;;;;5053421;28;20049;-80
2022/06/24 11:53:00;;;;;;;1999.90;999.90;;;19.40;99.90;;;;;;5051851;28;20619;-79
2022/06/24 11:55:29;;;;;;;1999.90;999.90;;;20.10;99.90;;;;;;5052342;28;20053;-79
2022/06/24 11:58:00;;;;;;;1999.90;999.90;;;19.50;99.90;;;;;;5053045;28;20519;-80
2022/06/24 12:00:28;;;;;;;1999.90;999.90;;;19.80;99.90;;;;;;5052888;28;20056;-80
2022/06/24 12:02:55;;;;;;;1999.90;999.90;;;19.90;99.90;;;;;;5052266;28;20037;-80
2022/06/24 12:05:24;;;;;;;1999.90;999.90;;;20.40;99.90;;;;;;5053124;28;20194;-80
2022/06/24 12:07:51;;;;;;;1999.90;999.90;;;20.60;99.90;;;;;;5052759;28;20055;-82
2022/06/24 12:10:17;;;;;;;1999.90;999.90;;;20.70;99.90;;;;;;5052315;28;20108;-80
2022/06/24 12:13:07;;;;;;;1999.90;999.90;;;21.60;99.90;;;;;;5052879;28;20118;-80
2022/06/24 12:15:52;;;;;;;1999.90;999.90;;;21.00;99.90;;;;;;5052096;28;20049;-80
2022/06/24 12:18:19;;;;;;;1999.90;999.90;;;21.50;99.90;;;;;;5052173;28;20114;-80